Airfield :
LOGIN :

Register | Disclaimer

   EN    FR    IT 

 










Legend :    VFR   Marginal VFR   IFR   Intensive IFR   Very Intensive IFR
Visi :
Ceiling :
>= 8 km
>= 3000ft
5 to 8 km
1000 to 3000 ft
1500m to 5 km
500 to 1000 ft
800 to 1500m
200 to 500 ft
< 800m
< 200 ft
Symbols :   Thunderstorms  Fog  Heavy snow  Heavy precipitations  Wind > 20 kt
SIGMETs :     Misc.  Thunderstorms  Icing  Turbulence  Mountain Waves  Volcanic Ashes







- Airport Elevation : 302 ft
- IATA code : MAH


LEMH - Menorca

CURRENT METAR :
  • 261230Z 21008KT 170V270 9999 FEW020 25/14 Q1015

EXPIRED METARs :
  • 261200Z 19008KT 160V270 9999 FEW020 25/12 Q1016
  • 261130Z 19008KT 150V230 9999 FEW020 25/15 Q1016
  • 261100Z 19007KT 160V230 9999 FEW020 25/16 Q1016
  • 261030Z 19005KT 150V260 CAVOK 25/15 Q1016
  • 261000Z 20004KT 130V250 9999 FEW024 24/16 Q1016

TAF AMD TAF LEMH
Valid from the 26 at 11:00 until the 27 at 09:00 UTC


261138Z 2611/2709 11008KT 9999 FEW030 TX25/2612Z TN16/2706Z
TEMPO 2611/2616 19010KT
PROB30
TEMPO 2620/2703 2000 BR BKN005
No reported NOTAMs for that airfield.



MET'MAP, your aeronautical weather chart ! - Copyright ORBIFLY December 2007 - Disclaimer

ORBIFLY MET'MAP TEAM :

Programming & Development : Alexandra Zaïnal
Concept & Development : Baudouin d'Aumeries
Co-Development & Prog : Marc-Olivier Méhu
Technical & hardware support : Manuel Goepfert

Contact : metmap@orbifly.com




SOURCES & CREDITS :

   NOAA